This is the latest recevied weather packets stored in our database for station/object W1SCW. If no packets are shown the sender has not sent any weather packets the latest 10 day(s).
| Time | Temp. | Humidity | Pressure | Rain* | Wind** | Luminosity | Snow |
|---|---|---|---|---|---|---|---|
| 1777901192 | 20.56° C | 68% | 1014.5 hPa | 0 mm | - | 261 W/m² | - |
| 1777900890 | 20° C | 69% | 1014.3 hPa | 0 mm | - | 231 W/m² | - |
| 1777900587 | 20° C | 70% | 1014.5 hPa | 0 mm | - | 182 W/m² | - |
| 1777900284 | 19.44° C | 72% | 1014 hPa | 0 mm | - | 214 W/m² | - |
| 1777899980 | 19.44° C | 73% | 1014.3 hPa | 0 mm | - | 179 W/m² | - |
| 1777899677 | 19.44° C | 71% | 1014.2 hPa | 0 mm | - | 188 W/m² | - |
| 1777899375 | 18.89° C | 74% | 1014.3 hPa | 0 mm | - | 154 W/m² | - |
| 1777899072 | 18.33° C | 76% | 1014.2 hPa | 0 mm | - | 141 W/m² | - |
| 1777898769 | 17.78° C | 77% | 1014.2 hPa | 0 mm | - | 104 W/m² | - |
| 1777898467 | 17.78° C | 76% | 1014.4 hPa | 0 mm | - | 105 W/m² | - |
| 1777898164 | 17.22° C | 79% | 1014.3 hPa | 0 mm | - | 87 W/m² | - |
| 1777897861 | 16.67° C | 81% | 1014.3 hPa | 0 mm | - | 56 W/m² | - |
| 1777897557 | 16.67° C | 80% | 1014.2 hPa | 0 mm | - | 42 W/m² | - |
| 1777897253 | 16.67° C | 82% | 1014.1 hPa | 0 mm | - | 53 W/m² | - |
| 1777896949 | 15.56° C | 84% | 1014.2 hPa | 0 mm | - | 46 W/m² | - |
| 1777896646 | 15° C | 85% | 1014.2 hPa | 0 mm | - | 31 W/m² | - |
| 1777896343 | 15° C | 85% | 1014.4 hPa | 0 mm | - | 21 W/m² | - |
| 1777896041 | 15° C | 85% | 1014 hPa | 0 mm | - | 17 W/m² | - |
| 1777895739 | 15° C | 85% | 1014.1 hPa | 0 mm | - | 15 W/m² | - |
| 1777895436 | 15° C | 85% | 1013.8 hPa | 0 mm | - | 11 W/m² | - |
| 1777895134 | 15° C | 86% | 1013.9 hPa | 0 mm | - | 7 W/m² | - |
| 1777894831 | 15° C | 84% | 1013.9 hPa | 0 mm | - | 5 W/m² | - |
| 1777894527 | 15° C | 84% | 1014.2 hPa | 0 mm | - | 2 W/m² | - |
| 1777894225 | 15° C | 83% | 1013.9 hPa | 0 mm | - | 1 W/m² | - |
| 1777893922 | 15° C | 83% | 1014.1 hPa | 0 mm | - | 0 W/m² | - |
* Rain latest hour (hover to see other rain measurements)
** Current wind speed in m/s (hover to see current wind gust speed)